createdAt,value
2023-01-21T00:01:10.647Z,27.75
2023-01-21T00:03:38.530Z,27.60
2023-01-21T00:06:06.396Z,30.15
2023-01-21T00:08:35.516Z,27.98
2023-01-21T00:11:06.549Z,24.02
2023-01-21T00:13:34.616Z,29.60
2023-01-21T00:16:02.413Z,19.77
2023-01-21T00:18:30.872Z,28.27
2023-01-21T00:20:58.545Z,29.27
2023-01-21T00:23:26.457Z,29.42
2023-01-21T00:25:59.194Z,28.73
2023-01-21T00:28:29.515Z,26.52
2023-01-21T00:31:00.807Z,26.60
2023-01-21T00:33:28.824Z,22.92
2023-01-21T00:36:00.265Z,27.48
2023-01-21T00:38:27.913Z,33.05
2023-01-21T00:41:01.595Z,22.00
2023-01-21T00:43:29.489Z,28.67
2023-01-21T00:45:57.504Z,27.05
2023-01-21T00:48:25.557Z,26.90
2023-01-21T00:50:55.966Z,24.77
2023-01-21T00:53:23.979Z,18.58
2023-01-21T00:55:51.821Z,29.58
2023-01-21T00:58:21.689Z,23.75
2023-01-21T01:00:49.385Z,23.13
2023-01-21T01:03:17.058Z,26.02
2023-01-21T01:05:44.944Z,23.92
2023-01-21T01:08:16.375Z,29.67
2023-01-21T01:10:43.981Z,27.60
2023-01-21T01:13:11.679Z,30.08
2023-01-21T01:15:40.666Z,26.02
2023-01-21T01:18:08.392Z,35.85
2023-01-21T01:20:36.061Z,28.67
2023-01-21T01:23:05.146Z,32.45
2023-01-21T01:25:34.619Z,33.05
2023-01-21T01:28:02.252Z,33.30
2023-01-21T01:30:29.932Z,32.05
2023-01-21T01:32:58.939Z,31.90
2023-01-21T01:35:26.594Z,29.63
2023-01-21T01:37:54.527Z,29.00
2023-01-21T01:40:22.256Z,39.92
2023-01-21T01:42:49.906Z,33.08
2023-01-21T01:45:20.237Z,35.65
2023-01-21T01:47:58.364Z,31.83
2023-01-21T01:50:28.324Z,34.92
2023-01-21T01:52:56.597Z,28.95
2023-01-21T01:55:24.569Z,27.95
2023-01-21T01:57:55.432Z,35.38
2023-01-21T02:00:23.256Z,28.10
2023-01-21T02:03:04.882Z,26.83
2023-01-21T02:05:34.615Z,33.83
2023-01-21T02:08:02.999Z,36.72
2023-01-21T02:10:31.891Z,34.33
2023-01-21T02:12:59.548Z,36.50
2023-01-21T02:15:30.425Z,30.38
2023-01-21T02:18:02.499Z,41.72
2023-01-21T02:20:45.296Z,35.00
2023-01-21T02:23:15.149Z,38.65
2023-01-21T02:25:52.597Z,35.15
2023-01-21T02:28:32.495Z,33.95
2023-01-21T02:31:09.694Z,33.45
2023-01-21T02:33:49.819Z,34.72
2023-01-21T02:36:24.188Z,33.80
2023-01-21T02:38:54.910Z,40.75
2023-01-21T02:41:27.034Z,33.67
2023-01-21T02:43:58.033Z,35.50
2023-01-21T02:46:29.439Z,33.92
2023-01-21T02:49:00.260Z,53.75
2023-01-21T02:51:27.928Z,32.17
2023-01-21T02:53:55.550Z,41.60
2023-01-21T02:56:25.953Z,34.05
2023-01-21T02:58:56.210Z,38.40
2023-01-21T03:01:28.147Z,43.25
2023-01-21T03:04:11.301Z,44.92
2023-01-21T03:06:56.868Z,42.90
2023-01-21T03:09:26.272Z,31.98
2023-01-21T03:12:12.171Z,38.10
2023-01-21T03:17:33.085Z,39.25
2023-01-21T03:20:04.903Z,42.30
2023-01-21T03:22:34.377Z,35.22
2023-01-21T03:25:04.196Z,35.72
2023-01-21T03:27:33.002Z,41.28
2023-01-21T03:30:03.307Z,37.58
2023-01-21T03:32:32.306Z,40.50
2023-01-21T03:35:00.813Z,46.05
2023-01-21T03:37:32.091Z,44.30
2023-01-21T03:40:04.379Z,47.95
2023-01-21T03:42:32.339Z,47.10
2023-01-21T03:45:00.236Z,39.25
2023-01-21T03:47:31.480Z,36.17
2023-01-21T03:50:00.338Z,49.80
2023-01-21T03:52:28.227Z,48.30
2023-01-21T03:54:57.243Z,39.80
2023-01-21T03:57:24.887Z,40.95
2023-01-21T03:59:52.548Z,44.80
2023-01-21T04:02:21.091Z,42.47
2023-01-21T04:04:49.087Z,44.42
2023-01-21T04:07:17.340Z,46.08
2023-01-21T04:09:44.996Z,44.45
2023-01-21T04:12:14.003Z,31.25
2023-01-21T04:14:41.644Z,54.47
2023-01-21T04:17:09.566Z,35.55
2023-01-21T04:19:38.272Z,37.22
2023-01-21T04:22:05.963Z,42.53
2023-01-21T04:24:34.733Z,38.92
2023-01-21T04:27:03.068Z,37.97
2023-01-21T04:29:32.836Z,51.83
2023-01-21T04:32:00.572Z,41.35
2023-01-21T04:34:28.243Z,41.92
2023-01-21T04:36:56.357Z,41.95
2023-01-21T04:39:23.966Z,39.25
2023-01-21T04:41:51.606Z,38.95
2023-01-21T04:44:19.248Z,28.70
2023-01-21T04:46:48.255Z,32.38
2023-01-21T04:49:15.925Z,36.25
2023-01-21T04:51:43.596Z,56.33
2023-01-21T04:54:11.649Z,53.33
2023-01-21T04:56:39.440Z,42.08
2023-01-21T04:59:07.700Z,43.85
2023-01-21T05:01:35.559Z,40.25
2023-01-21T05:04:04.723Z,43.33
2023-01-21T05:06:32.413Z,50.58
2023-01-21T05:09:00.686Z,42.88
2023-01-21T05:11:28.363Z,39.17
2023-01-21T05:13:56.082Z,46.85
2023-01-21T05:16:23.780Z,36.72
2023-01-21T05:18:51.471Z,41.63
2023-01-21T05:21:20.477Z,44.70
2023-01-21T05:23:48.174Z,45.05
2023-01-21T05:26:15.816Z,38.20
2023-01-21T05:28:43.431Z,33.03
2023-01-21T05:31:11.257Z,35.00
2023-01-21T05:33:38.999Z,39.55
2023-01-21T05:36:07.366Z,50.00
2023-01-21T05:38:36.442Z,49.08
2023-01-21T05:41:05.047Z,43.60
2023-01-21T05:43:32.713Z,49.58
2023-01-21T05:46:00.447Z,41.45
2023-01-21T05:48:29.865Z,44.75
2023-01-21T05:50:58.454Z,54.92
2023-01-21T05:53:26.358Z,39.80
2023-01-21T05:55:55.653Z,48.33
2023-01-21T05:58:24.322Z,50.20
2023-01-21T06:00:52.011Z,45.50
2023-01-21T06:03:19.722Z,46.80
2023-01-21T06:05:49.555Z,45.97
2023-01-21T06:08:17.359Z,48.55
2023-01-21T06:10:45.122Z,48.80
2023-01-21T06:13:14.638Z,52.95
2023-01-21T06:15:42.467Z,46.55
2023-01-21T06:18:10.149Z,49.38
2023-01-21T06:20:37.783Z,47.08
2023-01-21T06:23:05.541Z,39.65
2023-01-21T06:25:33.352Z,44.38
2023-01-21T06:28:02.200Z,42.28
2023-01-21T06:30:31.195Z,46.72
2023-01-21T06:32:58.877Z,49.83
2023-01-21T06:35:26.568Z,49.13
2023-01-21T06:37:54.205Z,42.13
2023-01-21T06:40:21.838Z,42.00
2023-01-21T06:42:49.820Z,41.00
2023-01-21T06:45:17.924Z,45.33
2023-01-21T06:47:47.162Z,46.45
2023-01-21T06:50:16.268Z,41.92
2023-01-21T06:52:44.588Z,49.05
2023-01-21T06:55:12.630Z,55.45
2023-01-21T06:57:40.714Z,44.10
2023-01-21T07:00:09.609Z,48.15
2023-01-21T07:02:37.303Z,45.55
2023-01-21T07:05:07.019Z,44.85
2023-01-21T07:07:34.853Z,46.83
2023-01-21T07:10:02.521Z,50.42
2023-01-21T07:12:30.190Z,42.95
2023-01-21T07:14:57.847Z,37.03
2023-01-21T07:17:25.501Z,43.58
2023-01-21T07:19:53.190Z,39.38
2023-01-21T07:22:22.194Z,45.90
2023-01-21T07:24:49.887Z,54.22
2023-01-21T07:27:17.541Z,43.42
2023-01-21T07:29:45.197Z,52.67
2023-01-21T07:32:12.883Z,47.95
2023-01-21T07:34:40.504Z,45.08
2023-01-21T07:37:08.291Z,44.35
2023-01-21T07:39:37.980Z,49.08
2023-01-21T07:42:05.770Z,40.70
2023-01-21T07:44:34.080Z,50.60
2023-01-21T07:47:01.763Z,47.33
2023-01-21T07:49:29.494Z,48.45
2023-01-21T07:51:57.672Z,47.83
2023-01-21T07:54:25.429Z,45.38
2023-01-21T07:56:54.462Z,44.05
2023-01-21T07:59:22.141Z,50.22
2023-01-21T08:01:50.099Z,54.17
2023-01-21T08:04:18.354Z,50.25
2023-01-21T08:06:47.135Z,50.92
2023-01-21T08:09:14.816Z,41.03
2023-01-21T08:11:44.393Z,46.78
2023-01-21T08:14:13.434Z,39.38
2023-01-21T08:16:41.148Z,41.17
2023-01-21T08:19:08.893Z,49.17
2023-01-21T08:21:36.571Z,52.05
2023-01-21T08:24:04.399Z,40.63
2023-01-21T08:26:32.013Z,43.45
2023-01-21T08:29:00.891Z,51.78
2023-01-21T08:31:29.994Z,47.75
2023-01-21T08:33:57.926Z,43.22
2023-01-21T08:36:25.890Z,46.65
2023-01-21T08:38:54.011Z,39.80
2023-01-21T08:41:21.667Z,42.90
2023-01-21T08:43:49.429Z,49.35
2023-01-21T08:46:17.296Z,40.42
2023-01-21T08:48:46.396Z,47.95
2023-01-21T08:51:14.132Z,46.67
2023-01-21T08:53:42.165Z,38.47
2023-01-21T08:56:09.829Z,43.80
2023-01-21T08:58:38.135Z,51.05
2023-01-21T09:01:09.473Z,45.45
2023-01-21T09:03:37.165Z,36.25
2023-01-21T09:06:07.136Z,42.97
2023-01-21T09:08:36.504Z,46.17
2023-01-21T09:11:06.811Z,48.28
2023-01-21T09:13:35.404Z,57.17
2023-01-21T09:16:04.601Z,37.80
2023-01-21T09:18:32.395Z,46.47
2023-01-21T09:21:03.364Z,49.35
2023-01-21T09:23:34.422Z,50.95
2023-01-21T09:26:03.436Z,43.33
2023-01-21T09:28:32.122Z,56.17
2023-01-21T09:31:00.166Z,48.42
2023-01-21T09:33:28.331Z,48.47
2023-01-21T09:35:56.337Z,47.38
2023-01-21T09:38:24.430Z,43.95
2023-01-21T09:40:53.880Z,42.85
2023-01-21T09:43:25.124Z,44.80
2023-01-21T09:45:55.226Z,40.97
2023-01-21T09:48:28.096Z,40.70
2023-01-21T09:50:56.552Z,38.03
2023-01-21T09:53:28.372Z,43.22
2023-01-21T09:55:59.009Z,39.80
2023-01-21T09:58:28.528Z,38.55
2023-01-21T10:00:58.571Z,42.55
2023-01-21T10:03:29.295Z,40.92
2023-01-21T10:06:12.468Z,39.78
2023-01-21T10:08:47.650Z,41.35
2023-01-21T10:11:22.237Z,37.75
2023-01-21T10:13:59.036Z,41.77
2023-01-21T10:16:32.375Z,41.47
2023-01-21T10:19:02.547Z,39.42
2023-01-21T10:21:33.307Z,41.63
2023-01-21T10:24:03.914Z,44.92
2023-01-21T10:26:34.954Z,35.83
2023-01-21T10:29:03.401Z,34.40
2023-01-21T10:31:32.946Z,36.08
2023-01-21T10:34:00.660Z,35.22
2023-01-21T10:36:44.115Z,33.75
2023-01-21T10:39:17.346Z,34.65
2023-01-21T10:42:02.582Z,38.33
2023-01-21T10:44:37.524Z,31.20
2023-01-21T10:47:10.870Z,34.13
2023-01-21T10:49:46.457Z,35.88
2023-01-21T10:54:48.863Z,28.00
2023-01-21T10:57:31.663Z,37.35
2023-01-21T11:00:01.742Z,38.00
2023-01-21T11:02:31.064Z,29.80
2023-01-21T11:04:59.787Z,37.08
2023-01-21T11:07:28.088Z,28.63
2023-01-21T11:09:56.749Z,28.02
2023-01-21T11:12:25.774Z,30.33
2023-01-21T11:14:55.263Z,34.08
2023-01-21T11:17:30.915Z,35.17
2023-01-21T11:20:02.604Z,27.10
2023-01-21T11:22:31.150Z,28.33
2023-01-21T11:24:59.328Z,26.35
2023-01-21T11:27:34.904Z,28.92
2023-01-21T11:30:03.137Z,28.13
2023-01-21T11:32:31.717Z,30.73
2023-01-21T11:35:02.668Z,29.48
2023-01-21T11:37:31.364Z,33.35
2023-01-21T11:40:00.152Z,26.88
2023-01-21T11:42:27.848Z,24.92
2023-01-21T11:44:57.794Z,31.08
2023-01-21T11:47:36.537Z,23.63
2023-01-21T11:50:11.597Z,26.25
2023-01-21T11:52:39.252Z,25.35
2023-01-21T11:55:18.657Z,22.70
2023-01-21T11:57:50.219Z,32.35
2023-01-21T12:00:20.716Z,25.00
2023-01-21T12:02:49.843Z,29.13
2023-01-21T12:05:20.224Z,27.90
2023-01-21T12:07:50.755Z,30.23
2023-01-21T12:10:24.460Z,26.20
2023-01-21T12:12:56.439Z,28.13
2023-01-21T12:15:35.124Z,23.13
2023-01-21T12:18:09.190Z,26.20
2023-01-21T12:20:40.091Z,28.40
2023-01-21T12:23:26.174Z,33.45
2023-01-21T12:25:58.793Z,35.20
2023-01-21T12:28:36.912Z,34.47
2023-01-21T12:31:12.618Z,27.55
2023-01-21T12:33:47.534Z,23.73
2023-01-21T12:36:19.036Z,29.48
2023-01-21T12:38:48.413Z,30.60
2023-01-21T12:41:18.396Z,19.88
2023-01-21T12:43:47.777Z,23.92
2023-01-21T12:46:18.153Z,22.23
2023-01-21T12:48:48.235Z,32.45
2023-01-21T12:51:19.814Z,28.35
2023-01-21T12:53:50.256Z,25.55
2023-01-21T12:56:25.007Z,30.23
2023-01-21T12:58:55.934Z,24.02
2023-01-21T13:01:36.940Z,22.30
2023-01-21T13:04:07.999Z,32.90
2023-01-21T13:06:53.285Z,25.27
2023-01-21T13:11:52.399Z,24.20
2023-01-21T13:14:24.705Z,23.08
2023-01-21T13:16:55.652Z,25.63
2023-01-21T13:19:23.800Z,28.17
2023-01-21T13:21:54.839Z,26.00
2023-01-21T13:24:26.257Z,22.23
2023-01-21T13:26:58.206Z,26.88
2023-01-21T13:29:32.308Z,26.08
2023-01-21T13:32:15.174Z,26.00
2023-01-21T13:34:45.959Z,20.48
2023-01-21T13:37:17.963Z,21.98
2023-01-21T13:39:52.071Z,31.23
2023-01-21T13:42:26.283Z,20.42
2023-01-21T13:44:59.353Z,24.15
2023-01-21T13:47:39.899Z,24.38
2023-01-21T13:50:18.086Z,24.08
2023-01-21T13:52:55.256Z,24.85
2023-01-21T13:55:27.248Z,20.92
2023-01-21T13:58:02.321Z,25.02
2023-01-21T14:03:01.936Z,24.60
2023-01-21T14:05:31.599Z,28.48
2023-01-21T14:08:01.364Z,22.33
2023-01-21T14:10:31.807Z,26.55
2023-01-21T14:13:09.652Z,31.63
2023-01-21T14:15:42.660Z,22.27
2023-01-21T14:18:20.638Z,28.10
2023-01-21T14:21:08.866Z,24.58
2023-01-21T14:23:46.929Z,29.40
2023-01-21T14:26:30.710Z,32.15
2023-01-21T14:29:03.906Z,31.92
2023-01-21T14:31:34.479Z,35.97
2023-01-21T14:34:05.921Z,31.33
2023-01-21T14:36:37.787Z,32.50
2023-01-21T14:39:08.539Z,28.98
2023-01-21T14:41:55.330Z,29.70
2023-01-21T14:44:42.826Z,40.97
2023-01-21T14:47:22.993Z,28.85
2023-01-21T14:49:53.343Z,32.67
2023-01-21T14:52:22.208Z,35.78
2023-01-21T14:54:49.947Z,31.77
2023-01-21T14:57:26.585Z,37.17
2023-01-21T14:59:56.516Z,34.53
2023-01-21T15:02:28.557Z,41.25
2023-01-21T15:04:58.419Z,27.38
2023-01-21T15:07:29.297Z,32.80
2023-01-21T15:09:58.808Z,39.33
2023-01-21T15:12:27.955Z,35.00
2023-01-21T15:14:57.749Z,36.70
2023-01-21T15:17:40.595Z,23.33
2023-01-21T15:20:26.891Z,31.02
2023-01-21T15:23:06.278Z,34.28
2023-01-21T15:25:36.805Z,36.03
2023-01-21T15:28:38.333Z,27.88
2023-01-21T15:31:07.414Z,30.52
2023-01-21T15:33:37.727Z,26.23
2023-01-21T15:36:06.416Z,32.45
2023-01-21T15:38:40.695Z,26.95
2023-01-21T15:41:12.549Z,34.90
2023-01-21T15:43:43.558Z,36.70
2023-01-21T15:46:19.952Z,31.98
2023-01-21T15:48:57.799Z,37.90
2023-01-21T15:51:30.247Z,34.10
2023-01-21T15:54:14.218Z,39.20
2023-01-21T15:56:49.926Z,30.67
2023-01-21T15:59:24.722Z,25.88
2023-01-21T16:02:04.873Z,32.33
2023-01-21T16:04:35.769Z,30.92
2023-01-21T16:07:12.145Z,37.10
2023-01-21T16:09:47.402Z,28.52
2023-01-21T16:12:21.623Z,43.00
2023-01-21T16:14:57.697Z,40.53
2023-01-21T16:17:28.990Z,40.97
2023-01-21T16:19:59.543Z,37.65
2023-01-21T16:22:29.906Z,33.63
2023-01-21T16:25:01.724Z,33.05
2023-01-21T16:27:31.070Z,37.05
2023-01-21T16:30:00.024Z,37.60
2023-01-21T16:32:27.934Z,32.40
2023-01-21T16:34:55.601Z,39.88
2023-01-21T16:37:25.004Z,32.58
2023-01-21T16:39:54.348Z,35.63
2023-01-21T16:42:30.257Z,31.15
2023-01-21T16:44:58.534Z,41.60
2023-01-21T16:47:27.207Z,43.05
2023-01-21T16:49:54.908Z,37.53
2023-01-21T16:52:24.474Z,32.72
2023-01-21T16:54:52.791Z,34.58
2023-01-21T16:57:22.949Z,33.47
2023-01-21T16:59:55.934Z,35.50
2023-01-21T17:02:25.620Z,42.53
2023-01-21T17:04:55.440Z,38.22
2023-01-21T17:07:24.196Z,45.78
2023-01-21T17:09:55.153Z,37.20
2023-01-21T17:12:24.465Z,39.70
2023-01-21T17:14:57.061Z,71.30
2023-01-21T17:17:25.561Z,77.00
2023-01-21T17:19:53.307Z,59.63
2023-01-21T17:22:21.999Z,46.33
2023-01-21T17:25:00.671Z,51.75
2023-01-21T17:27:29.087Z,50.72
2023-01-21T17:30:17.370Z,37.22
2023-01-21T17:32:52.963Z,45.92
2023-01-21T17:35:23.294Z,44.38
2023-01-21T17:37:56.019Z,44.17
2023-01-21T17:40:41.425Z,50.25
2023-01-21T17:43:18.838Z,44.38
2023-01-21T17:45:49.296Z,42.55
2023-01-21T17:48:22.947Z,38.33
2023-01-21T17:50:50.694Z,41.75
2023-01-21T17:53:20.661Z,47.45
2023-01-21T17:55:56.843Z,59.80
2023-01-21T17:58:40.162Z,64.20
2023-01-21T18:01:09.660Z,45.90
2023-01-21T18:03:37.328Z,47.92
2023-01-21T18:06:06.196Z,43.17
2023-01-21T18:08:33.897Z,61.33
2023-01-21T18:11:01.579Z,46.80
2023-01-21T18:13:29.235Z,54.05
2023-01-21T18:15:56.924Z,39.03
2023-01-21T18:18:27.343Z,45.90
2023-01-21T18:20:55.108Z,51.20
2023-01-21T18:23:22.895Z,41.13
2023-01-21T18:25:52.386Z,62.00
2023-01-21T18:28:21.615Z,49.22
2023-01-21T18:30:49.476Z,52.90
2023-01-21T18:33:17.356Z,74.65
2023-01-21T18:35:47.643Z,72.25
2023-01-21T18:38:16.023Z,63.72
2023-01-21T18:40:43.843Z,61.10
2023-01-21T18:43:11.501Z,67.38
2023-01-21T18:45:40.008Z,76.32
2023-01-21T18:48:11.269Z,94.85
2023-01-21T18:50:38.909Z,65.75
2023-01-21T18:53:08.082Z,85.00
2023-01-21T18:55:35.979Z,67.05
2023-01-21T18:58:04.582Z,76.50
2023-01-21T19:00:33.236Z,46.22
2023-01-21T19:03:01.713Z,76.57
2023-01-21T19:05:34.060Z,74.60
2023-01-21T19:08:01.949Z,69.40
2023-01-21T19:10:30.958Z,60.17
2023-01-21T19:12:58.696Z,65.00
2023-01-21T19:15:28.046Z,46.38
2023-01-21T19:17:56.320Z,50.67
2023-01-21T19:20:24.825Z,51.25
2023-01-21T19:22:52.823Z,52.17
2023-01-21T19:25:21.637Z,57.47
2023-01-21T19:27:51.348Z,46.25
2023-01-21T19:30:20.398Z,52.38
2023-01-21T19:32:48.507Z,97.00
2023-01-21T19:35:16.952Z,118.07
2023-01-21T19:37:49.206Z,113.97
2023-01-21T19:40:18.600Z,84.32
2023-01-21T19:42:46.600Z,91.32
2023-01-21T19:45:16.160Z,72.78
2023-01-21T19:47:44.626Z,77.60
2023-01-21T19:50:13.422Z,57.22
2023-01-21T19:52:41.238Z,64.82
2023-01-21T19:55:09.255Z,58.88
2023-01-21T19:57:38.293Z,44.53
2023-01-21T20:00:14.566Z,59.85
2023-01-21T20:02:43.585Z,65.25
2023-01-21T20:05:11.312Z,53.58
2023-01-21T20:07:41.674Z,57.58
2023-01-21T20:10:13.697Z,54.70
2023-01-21T20:12:43.869Z,60.28
2023-01-21T20:15:13.223Z,61.70
2023-01-21T20:17:42.368Z,63.72
2023-01-21T20:20:21.892Z,55.65
2023-01-21T20:22:49.663Z,61.55
2023-01-21T20:25:18.145Z,62.17
2023-01-21T20:27:49.311Z,63.72
2023-01-21T20:30:18.657Z,60.47
2023-01-21T20:32:47.011Z,55.60
2023-01-21T20:35:15.929Z,57.10
2023-01-21T20:37:48.784Z,66.45
2023-01-21T20:40:19.219Z,61.78
2023-01-21T20:42:47.488Z,65.32
2023-01-21T20:45:16.183Z,57.38
2023-01-21T20:47:50.031Z,55.90
2023-01-21T20:50:19.722Z,62.13
2023-01-21T20:52:49.189Z,67.63
2023-01-21T20:55:20.747Z,59.78
2023-01-21T20:57:49.307Z,66.88
2023-01-21T21:00:17.936Z,68.53
2023-01-21T21:02:45.792Z,64.00
2023-01-21T21:05:13.619Z,69.78
2023-01-21T21:07:41.858Z,70.80
2023-01-21T21:10:19.128Z,51.75
2023-01-21T21:12:46.978Z,44.65
2023-01-21T21:15:15.102Z,65.20
2023-01-21T21:17:43.790Z,65.38
2023-01-21T21:20:15.890Z,58.08
2023-01-21T21:22:43.726Z,57.15
2023-01-21T21:25:13.942Z,59.70
2023-01-21T21:27:42.984Z,48.97
2023-01-21T21:30:12.755Z,68.00
2023-01-21T21:32:40.400Z,56.83
2023-01-21T21:35:08.674Z,51.92
2023-01-21T21:37:36.312Z,60.67
2023-01-21T21:40:04.122Z,47.55
2023-01-21T21:42:48.936Z,44.42
2023-01-21T21:45:18.204Z,57.40
2023-01-21T21:48:03.548Z,57.88
2023-01-21T21:50:31.323Z,50.13
2023-01-21T21:52:59.031Z,53.10
2023-01-21T21:55:26.709Z,56.03
2023-01-21T21:57:55.201Z,48.63
2023-01-21T22:00:24.268Z,39.75
2023-01-21T22:02:51.938Z,49.33
2023-01-21T22:05:20.082Z,39.25
2023-01-21T22:07:47.947Z,46.53
2023-01-21T22:10:15.736Z,46.30
2023-01-21T22:12:43.420Z,47.35
2023-01-21T22:15:11.435Z,48.72
2023-01-21T22:17:40.563Z,36.97
2023-01-21T22:20:08.638Z,49.47
2023-01-21T22:22:36.308Z,44.75
2023-01-21T22:25:04.134Z,48.03
2023-01-21T22:27:31.901Z,43.80
2023-01-21T22:30:01.385Z,47.50
2023-01-21T22:32:29.305Z,51.38
2023-01-21T22:34:58.358Z,45.47
2023-01-21T22:37:26.047Z,52.00
2023-01-21T22:39:53.716Z,48.10
2023-01-21T22:42:21.484Z,59.38
2023-01-21T22:44:49.135Z,54.38
2023-01-21T22:47:16.771Z,51.45
2023-01-21T22:49:45.511Z,39.50
2023-01-21T22:52:14.573Z,39.55
2023-01-21T22:54:42.280Z,55.67
2023-01-21T22:57:09.970Z,51.22
2023-01-21T22:59:39.805Z,41.20
2023-01-21T23:02:07.651Z,42.33
2023-01-21T23:04:35.585Z,45.63
2023-01-21T23:07:03.271Z,63.72
2023-01-21T23:09:32.885Z,44.95
2023-01-21T23:12:00.502Z,49.42
2023-01-21T23:14:28.148Z,52.53
2023-01-21T23:16:55.951Z,52.70
2023-01-21T23:19:23.583Z,48.20
2023-01-21T23:21:51.273Z,54.08
2023-01-21T23:24:19.306Z,42.25
2023-01-21T23:26:48.355Z,43.60
2023-01-21T23:29:16.020Z,48.33
2023-01-21T23:31:43.999Z,36.53
2023-01-21T23:34:13.126Z,40.03
2023-01-21T23:36:40.769Z,52.75
2023-01-21T23:39:08.533Z,37.95
2023-01-21T23:41:36.151Z,58.28
2023-01-21T23:44:05.427Z,46.83
2023-01-21T23:46:33.130Z,42.63
2023-01-21T23:49:01.008Z,36.22
2023-01-21T23:51:28.657Z,34.53
2023-01-21T23:53:57.248Z,34.15
2023-01-21T23:56:25.615Z,24.75
2023-01-21T23:58:53.333Z,30.77
